sensor_id;sensor_type;location;lat;lon;timestamp;P1;durP1;ratioP1;P2;durP2;ratioP2
21979;SDS011;11154;48.558;9.234;2023-10-13T00:00:01;7.72;;;2.80;;
21979;SDS011;11154;48.558;9.234;2023-10-13T00:02:23;5.47;;;2.90;;
21979;SDS011;11154;48.558;9.234;2023-10-13T00:04:24;7.43;;;2.90;;
21979;SDS011;11154;48.558;9.234;2023-10-13T00:06:26;7.05;;;2.45;;
21979;SDS011;11154;48.558;9.234;2023-10-13T00:08:28;6.35;;;2.83;;
21979;SDS011;11154;48.558;9.234;2023-10-13T00:10:30;6.25;;;2.88;;
21979;SDS011;11154;48.558;9.234;2023-10-13T00:12:33;7.78;;;2.90;;
21979;SDS011;11154;48.558;9.234;2023-10-13T00:14:38;6.90;;;3.08;;
21979;SDS011;11154;48.558;9.234;2023-10-13T00:16:41;5.80;;;2.78;;
21979;SDS011;11154;48.558;9.234;2023-10-13T00:19:00;5.38;;;2.65;;
21979;SDS011;11154;48.558;9.234;2023-10-13T00:21:04;8.00;;;2.72;;
21979;SDS011;11154;48.558;9.234;2023-10-13T00:23:12;8.25;;;3.42;;
21979;SDS011;11154;48.558;9.234;2023-10-13T00:25:14;10.93;;;3.10;;
21979;SDS011;11154;48.558;9.234;2023-10-13T00:27:27;6.30;;;2.90;;
21979;SDS011;11154;48.558;9.234;2023-10-13T00:29:30;7.47;;;2.72;;
21979;SDS011;11154;48.558;9.234;2023-10-13T00:31:38;8.30;;;2.85;;
21979;SDS011;11154;48.558;9.234;2023-10-13T00:33:42;5.95;;;2.60;;
21979;SDS011;11154;48.558;9.234;2023-10-13T00:35:46;8.45;;;2.75;;
21979;SDS011;11154;48.558;9.234;2023-10-13T00:37:47;6.20;;;2.58;;
21979;SDS011;11154;48.558;9.234;2023-10-13T00:39:53;8.80;;;2.60;;
21979;SDS011;11154;48.558;9.234;2023-10-13T00:41:56;9.00;;;2.92;;
21979;SDS011;11154;48.558;9.234;2023-10-13T00:44:00;8.27;;;2.47;;
21979;SDS011;11154;48.558;9.234;2023-10-13T00:46:07;10.45;;;2.65;;
21979;SDS011;11154;48.558;9.234;2023-10-13T00:48:13;9.10;;;2.75;;
21979;SDS011;11154;48.558;9.234;2023-10-13T00:50:16;6.35;;;2.72;;
21979;SDS011;11154;48.558;9.234;2023-10-13T00:52:18;11.60;;;3.05;;
21979;SDS011;11154;48.558;9.234;2023-10-13T00:54:19;9.70;;;2.72;;
21979;SDS011;11154;48.558;9.234;2023-10-13T00:56:26;6.28;;;2.90;;
21979;SDS011;11154;48.558;9.234;2023-10-13T00:58:28;5.05;;;2.75;;
21979;SDS011;11154;48.558;9.234;2023-10-13T01:00:32;7.97;;;2.40;;
21979;SDS011;11154;48.558;9.234;2023-10-13T01:02:46;5.75;;;2.97;;
21979;SDS011;11154;48.558;9.234;2023-10-13T01:04:56;9.48;;;2.75;;
21979;SDS011;11154;48.558;9.234;2023-10-13T01:06:56;6.95;;;2.70;;
21979;SDS011;11154;48.558;9.234;2023-10-13T01:09:00;5.25;;;2.75;;
21979;SDS011;11154;48.558;9.234;2023-10-13T01:11:10;4.13;;;2.63;;
21979;SDS011;11154;48.558;9.234;2023-10-13T01:13:13;6.00;;;2.72;;
21979;SDS011;11154;48.558;9.234;2023-10-13T01:15:15;8.65;;;3.05;;
21979;SDS011;11154;48.558;9.234;2023-10-13T01:17:22;4.70;;;2.90;;
21979;SDS011;11154;48.558;9.234;2023-10-13T01:19:23;6.25;;;3.08;;
21979;SDS011;11154;48.558;9.234;2023-10-13T01:21:27;6.93;;;2.88;;
21979;SDS011;11154;48.558;9.234;2023-10-13T01:23:29;8.25;;;3.13;;
21979;SDS011;11154;48.558;9.234;2023-10-13T01:25:38;5.47;;;3.03;;
21979;SDS011;11154;48.558;9.234;2023-10-13T01:27:40;10.55;;;3.13;;
21979;SDS011;11154;48.558;9.234;2023-10-13T01:29:42;14.10;;;3.70;;
21979;SDS011;11154;48.558;9.234;2023-10-13T01:31:47;6.40;;;3.15;;
21979;SDS011;11154;48.558;9.234;2023-10-13T01:33:49;10.38;;;3.30;;
21979;SDS011;11154;48.558;9.234;2023-10-13T01:35:54;5.97;;;2.80;;
21979;SDS011;11154;48.558;9.234;2023-10-13T01:37:58;6.78;;;3.45;;
21979;SDS011;11154;48.558;9.234;2023-10-13T01:40:01;7.82;;;3.35;;
21979;SDS011;11154;48.558;9.234;2023-10-13T01:42:04;9.30;;;3.22;;
21979;SDS011;11154;48.558;9.234;2023-10-13T01:44:06;8.02;;;3.42;;
21979;SDS011;11154;48.558;9.234;2023-10-13T01:46:11;5.82;;;2.92;;
21979;SDS011;11154;48.558;9.234;2023-10-13T01:48:15;8.68;;;2.92;;
21979;SDS011;11154;48.558;9.234;2023-10-13T01:50:18;6.53;;;3.00;;
21979;SDS011;11154;48.558;9.234;2023-10-13T01:52:20;5.95;;;2.80;;
21979;SDS011;11154;48.558;9.234;2023-10-13T01:54:25;5.75;;;2.92;;
21979;SDS011;11154;48.558;9.234;2023-10-13T01:56:27;4.93;;;2.67;;
21979;SDS011;11154;48.558;9.234;2023-10-13T01:58:31;4.72;;;2.50;;
21979;SDS011;11154;48.558;9.234;2023-10-13T02:00:31;6.05;;;2.70;;
21979;SDS011;11154;48.558;9.234;2023-10-13T02:02:41;6.57;;;2.78;;
21979;SDS011;11154;48.558;9.234;2023-10-13T02:04:45;9.77;;;3.20;;
21979;SDS011;11154;48.558;9.234;2023-10-13T02:06:56;6.40;;;3.28;;
21979;SDS011;11154;48.558;9.234;2023-10-13T02:08:56;4.32;;;2.63;;
21979;SDS011;11154;48.558;9.234;2023-10-13T02:11:03;5.90;;;2.88;;
21979;SDS011;11154;48.558;9.234;2023-10-13T02:13:08;8.98;;;3.00;;
21979;SDS011;11154;48.558;9.234;2023-10-13T02:17:21;5.68;;;2.97;;
21979;SDS011;11154;48.558;9.234;2023-10-13T02:19:26;3.72;;;2.88;;
21979;SDS011;11154;48.558;9.234;2023-10-13T02:21:28;7.82;;;2.88;;
21979;SDS011;11154;48.558;9.234;2023-10-13T02:23:31;5.75;;;3.28;;
21979;SDS011;11154;48.558;9.234;2023-10-13T02:25:34;5.97;;;3.05;;
21979;SDS011;11154;48.558;9.234;2023-10-13T02:27:42;7.30;;;2.85;;
21979;SDS011;11154;48.558;9.234;2023-10-13T02:29:44;6.95;;;2.75;;
21979;SDS011;11154;48.558;9.234;2023-10-13T02:31:49;7.80;;;2.70;;
21979;SDS011;11154;48.558;9.234;2023-10-13T02:33:54;5.18;;;3.08;;
21979;SDS011;11154;48.558;9.234;2023-10-13T02:35:56;5.63;;;3.00;;
21979;SDS011;11154;48.558;9.234;2023-10-13T02:37:57;5.20;;;3.40;;
21979;SDS011;11154;48.558;9.234;2023-10-13T02:40:07;8.98;;;3.95;;
21979;SDS011;11154;48.558;9.234;2023-10-13T02:42:08;5.68;;;3.40;;
21979;SDS011;11154;48.558;9.234;2023-10-13T02:44:23;9.23;;;3.35;;
21979;SDS011;11154;48.558;9.234;2023-10-13T02:46:28;11.05;;;2.95;;
21979;SDS011;11154;48.558;9.234;2023-10-13T02:48:30;6.90;;;3.25;;
21979;SDS011;11154;48.558;9.234;2023-10-13T02:50:40;6.60;;;3.20;;
21979;SDS011;11154;48.558;9.234;2023-10-13T02:52:45;6.55;;;3.58;;
21979;SDS011;11154;48.558;9.234;2023-10-13T02:54:48;5.88;;;3.42;;
21979;SDS011;11154;48.558;9.234;2023-10-13T02:56:50;8.73;;;3.95;;
21979;SDS011;11154;48.558;9.234;2023-10-13T02:58:57;7.18;;;3.50;;
21979;SDS011;11154;48.558;9.234;2023-10-13T03:00:57;5.38;;;3.53;;
21979;SDS011;11154;48.558;9.234;2023-10-13T03:03:00;7.60;;;3.90;;
21979;SDS011;11154;48.558;9.234;2023-10-13T03:05:01;6.70;;;3.40;;
21979;SDS011;11154;48.558;9.234;2023-10-13T03:07:09;5.75;;;3.25;;
21979;SDS011;11154;48.558;9.234;2023-10-13T03:09:10;12.00;;;3.33;;
21979;SDS011;11154;48.558;9.234;2023-10-13T03:11:15;9.18;;;3.25;;
21979;SDS011;11154;48.558;9.234;2023-10-13T03:13:21;6.13;;;3.10;;
21979;SDS011;11154;48.558;9.234;2023-10-13T03:15:21;6.60;;;3.50;;
21979;SDS011;11154;48.558;9.234;2023-10-13T03:17:30;6.57;;;3.42;;
21979;SDS011;11154;48.558;9.234;2023-10-13T03:19:34;9.77;;;3.20;;
21979;SDS011;11154;48.558;9.234;2023-10-13T03:21:37;7.88;;;3.08;;
21979;SDS011;11154;48.558;9.234;2023-10-13T03:23:37;5.43;;;3.25;;
21979;SDS011;11154;48.558;9.234;2023-10-13T03:25:46;8.18;;;2.92;;
21979;SDS011;11154;48.558;9.234;2023-10-13T03:27:50;8.20;;;2.90;;
21979;SDS011;11154;48.558;9.234;2023-10-13T03:30:05;6.75;;;3.30;;
21979;SDS011;11154;48.558;9.234;2023-10-13T03:32:14;6.10;;;3.13;;
21979;SDS011;11154;48.558;9.234;2023-10-13T03:34:17;6.60;;;3.20;;
21979;SDS011;11154;48.558;9.234;2023-10-13T03:36:20;6.88;;;3.17;;
21979;SDS011;11154;48.558;9.234;2023-10-13T03:38:49;5.55;;;2.88;;
21979;SDS011;11154;48.558;9.234;2023-10-13T03:40:55;7.60;;;3.13;;
21979;SDS011;11154;48.558;9.234;2023-10-13T03:43:07;4.43;;;3.25;;
21979;SDS011;11154;48.558;9.234;2023-10-13T03:45:09;8.27;;;3.80;;
21979;SDS011;11154;48.558;9.234;2023-10-13T03:47:11;5.53;;;3.08;;
21979;SDS011;11154;48.558;9.234;2023-10-13T03:49:19;7.10;;;3.60;;
21979;SDS011;11154;48.558;9.234;2023-10-13T03:51:23;9.23;;;3.33;;
21979;SDS011;11154;48.558;9.234;2023-10-13T03:53:30;3.97;;;2.73;;
21979;SDS011;11154;48.558;9.234;2023-10-13T03:55:34;5.80;;;3.20;;
21979;SDS011;11154;48.558;9.234;2023-10-13T03:57:36;9.65;;;3.08;;
21979;SDS011;11154;48.558;9.234;2023-10-13T03:59:40;8.40;;;3.30;;
21979;SDS011;11154;48.558;9.234;2023-10-13T04:01:47;9.23;;;3.38;;
21979;SDS011;11154;48.558;9.234;2023-10-13T04:03:58;8.98;;;3.03;;
21979;SDS011;11154;48.558;9.234;2023-10-13T04:06:08;8.20;;;3.38;;
21979;SDS011;11154;48.558;9.234;2023-10-13T04:08:17;7.50;;;3.38;;
21979;SDS011;11154;48.558;9.234;2023-10-13T04:10:37;7.38;;;3.03;;
21979;SDS011;11154;48.558;9.234;2023-10-13T04:13:01;10.35;;;3.05;;
21979;SDS011;11154;48.558;9.234;2023-10-13T04:15:20;10.48;;;3.35;;
21979;SDS011;11154;48.558;9.234;2023-10-13T04:17:36;6.75;;;3.10;;
21979;SDS011;11154;48.558;9.234;2023-10-13T04:19:44;6.72;;;3.53;;
21979;SDS011;11154;48.558;9.234;2023-10-13T04:21:59;5.03;;;3.30;;
21979;SDS011;11154;48.558;9.234;2023-10-13T04:24:15;10.07;;;3.42;;
21979;SDS011;11154;48.558;9.234;2023-10-13T04:26:33;8.30;;;3.63;;
21979;SDS011;11154;48.558;9.234;2023-10-13T04:28:38;6.47;;;3.60;;
21979;SDS011;11154;48.558;9.234;2023-10-13T04:30:51;5.80;;;3.40;;
21979;SDS011;11154;48.558;9.234;2023-10-13T04:32:59;9.02;;;3.72;;
21979;SDS011;11154;48.558;9.234;2023-10-13T04:35:35;8.27;;;3.70;;
21979;SDS011;11154;48.558;9.234;2023-10-13T04:37:47;9.55;;;3.90;;
21979;SDS011;11154;48.558;9.234;2023-10-13T04:39:52;8.30;;;3.00;;
21979;SDS011;11154;48.558;9.234;2023-10-13T04:41:58;7.63;;;3.70;;
21979;SDS011;11154;48.558;9.234;2023-10-13T04:44:11;10.63;;;3.65;;
21979;SDS011;11154;48.558;9.234;2023-10-13T04:46:43;8.00;;;3.55;;
21979;SDS011;11154;48.558;9.234;2023-10-13T04:49:07;6.78;;;3.42;;
21979;SDS011;11154;48.558;9.234;2023-10-13T04:51:10;8.95;;;3.35;;
21979;SDS011;11154;48.558;9.234;2023-10-13T04:53:50;7.60;;;3.65;;
21979;SDS011;11154;48.558;9.234;2023-10-13T04:56:12;7.53;;;3.40;;
21979;SDS011;11154;48.558;9.234;2023-10-13T04:58:27;4.93;;;3.15;;
21979;SDS011;11154;48.558;9.234;2023-10-13T05:00:43;8.82;;;3.35;;
21979;SDS011;11154;48.558;9.234;2023-10-13T05:03:16;5.97;;;3.60;;
21979;SDS011;11154;48.558;9.234;2023-10-13T05:05:42;6.03;;;3.90;;
21979;SDS011;11154;48.558;9.234;2023-10-13T05:08:07;9.15;;;3.35;;
21979;SDS011;11154;48.558;9.234;2023-10-13T05:10:26;11.87;;;3.90;;
21979;SDS011;11154;48.558;9.234;2023-10-13T05:12:46;9.73;;;3.72;;
21979;SDS011;11154;48.558;9.234;2023-10-13T05:15:05;6.97;;;3.30;;
21979;SDS011;11154;48.558;9.234;2023-10-13T05:17:25;8.68;;;3.35;;
21979;SDS011;11154;48.558;9.234;2023-10-13T05:19:44;8.88;;;3.72;;
21979;SDS011;11154;48.558;9.234;2023-10-13T05:22:03;7.57;;;3.30;;
21979;SDS011;11154;48.558;9.234;2023-10-13T05:24:21;6.03;;;3.60;;
21979;SDS011;11154;48.558;9.234;2023-10-13T05:26:40;7.13;;;3.13;;
21979;SDS011;11154;48.558;9.234;2023-10-13T05:29:01;7.18;;;3.03;;
21979;SDS011;11154;48.558;9.234;2023-10-13T05:31:20;9.70;;;3.65;;
21979;SDS011;11154;48.558;9.234;2023-10-13T05:33:39;6.32;;;2.97;;
21979;SDS011;11154;48.558;9.234;2023-10-13T05:35:58;9.40;;;4.30;;
21979;SDS011;11154;48.558;9.234;2023-10-13T05:38:17;6.75;;;3.58;;
21979;SDS011;11154;48.558;9.234;2023-10-13T05:40:36;6.33;;;3.60;;
21979;SDS011;11154;48.558;9.234;2023-10-13T05:42:55;4.95;;;3.47;;
21979;SDS011;11154;48.558;9.234;2023-10-13T05:45:27;7.00;;;4.13;;
21979;SDS011;11154;48.558;9.234;2023-10-13T05:47:59;10.63;;;3.95;;
21979;SDS011;11154;48.558;9.234;2023-10-13T05:50:11;10.02;;;3.97;;
21979;SDS011;11154;48.558;9.234;2023-10-13T05:52:29;5.47;;;3.75;;
21979;SDS011;11154;48.558;9.234;2023-10-13T05:54:48;5.50;;;3.70;;
21979;SDS011;11154;48.558;9.234;2023-10-13T05:57:07;8.90;;;4.20;;
21979;SDS011;11154;48.558;9.234;2023-10-13T05:59:35;7.82;;;4.18;;
21979;SDS011;11154;48.558;9.234;2023-10-13T06:01:57;5.82;;;3.70;;
21979;SDS011;11154;48.558;9.234;2023-10-13T06:04:15;9.50;;;3.67;;
21979;SDS011;11154;48.558;9.234;2023-10-13T06:06:35;8.40;;;3.73;;
21979;SDS011;11154;48.558;9.234;2023-10-13T06:08:54;8.63;;;3.70;;
21979;SDS011;11154;48.558;9.234;2023-10-13T06:11:13;7.93;;;3.50;;
21979;SDS011;11154;48.558;9.234;2023-10-13T06:13:40;9.70;;;4.00;;
21979;SDS011;11154;48.558;9.234;2023-10-13T06:15:59;14.10;;;7.65;;
21979;SDS011;11154;48.558;9.234;2023-10-13T06:18:20;17.17;;;10.18;;
21979;SDS011;11154;48.558;9.234;2023-10-13T06:20:39;10.05;;;5.70;;
21979;SDS011;11154;48.558;9.234;2023-10-13T06:22:58;7.68;;;4.50;;
21979;SDS011;11154;48.558;9.234;2023-10-13T06:25:17;6.00;;;4.38;;
21979;SDS011;11154;48.558;9.234;2023-10-13T06:27:36;7.65;;;3.80;;
21979;SDS011;11154;48.558;9.234;2023-10-13T06:29:55;13.48;;;4.22;;
21979;SDS011;11154;48.558;9.234;2023-10-13T06:31:57;12.25;;;4.35;;
21979;SDS011;11154;48.558;9.234;2023-10-13T06:33:59;7.38;;;4.20;;
21979;SDS011;11154;48.558;9.234;2023-10-13T06:36:03;7.05;;;4.30;;
21979;SDS011;11154;48.558;9.234;2023-10-13T06:38:09;6.10;;;3.88;;
21979;SDS011;11154;48.558;9.234;2023-10-13T06:40:21;6.95;;;4.47;;
21979;SDS011;11154;48.558;9.234;2023-10-13T06:42:25;8.00;;;4.45;;
21979;SDS011;11154;48.558;9.234;2023-10-13T06:44:28;8.88;;;4.05;;
21979;SDS011;11154;48.558;9.234;2023-10-13T06:46:32;7.03;;;4.32;;
21979;SDS011;11154;48.558;9.234;2023-10-13T06:48:35;7.80;;;4.10;;
21979;SDS011;11154;48.558;9.234;2023-10-13T06:50:41;7.70;;;4.55;;
21979;SDS011;11154;48.558;9.234;2023-10-13T06:52:49;9.82;;;4.30;;
21979;SDS011;11154;48.558;9.234;2023-10-13T06:54:54;9.30;;;4.20;;
21979;SDS011;11154;48.558;9.234;2023-10-13T06:56:56;8.02;;;4.20;;
21979;SDS011;11154;48.558;9.234;2023-10-13T06:58:58;8.18;;;3.75;;
21979;SDS011;11154;48.558;9.234;2023-10-13T07:01:06;7.25;;;4.00;;
21979;SDS011;11154;48.558;9.234;2023-10-13T07:03:15;10.35;;;4.45;;
21979;SDS011;11154;48.558;9.234;2023-10-13T07:05:18;10.15;;;4.43;;
21979;SDS011;11154;48.558;9.234;2023-10-13T07:07:21;8.18;;;4.15;;
21979;SDS011;11154;48.558;9.234;2023-10-13T07:09:23;12.02;;;4.22;;
21979;SDS011;11154;48.558;9.234;2023-10-13T07:11:42;5.60;;;3.67;;
21979;SDS011;11154;48.558;9.234;2023-10-13T07:13:44;8.13;;;4.45;;
21979;SDS011;11154;48.558;9.234;2023-10-13T07:15:51;8.18;;;3.95;;
21979;SDS011;11154;48.558;9.234;2023-10-13T07:18:00;12.15;;;4.55;;
21979;SDS011;11154;48.558;9.234;2023-10-13T07:20:06;8.93;;;3.83;;
21979;SDS011;11154;48.558;9.234;2023-10-13T07:22:15;11.88;;;4.60;;
21979;SDS011;11154;48.558;9.234;2023-10-13T07:24:22;10.18;;;4.25;;
21979;SDS011;11154;48.558;9.234;2023-10-13T07:26:24;6.43;;;4.10;;
21979;SDS011;11154;48.558;9.234;2023-10-13T07:28:24;8.70;;;4.20;;
21979;SDS011;11154;48.558;9.234;2023-10-13T07:30:26;10.88;;;4.28;;
21979;SDS011;11154;48.558;9.234;2023-10-13T07:32:27;9.15;;;4.50;;
21979;SDS011;11154;48.558;9.234;2023-10-13T07:34:34;7.53;;;4.25;;
21979;SDS011;11154;48.558;9.234;2023-10-13T07:36:35;6.38;;;4.30;;
21979;SDS011;11154;48.558;9.234;2023-10-13T07:38:40;8.85;;;4.57;;
21979;SDS011;11154;48.558;9.234;2023-10-13T07:40:44;11.73;;;5.20;;
21979;SDS011;11154;48.558;9.234;2023-10-13T07:42:51;7.45;;;4.47;;
21979;SDS011;11154;48.558;9.234;2023-10-13T07:44:52;8.30;;;4.53;;
21979;SDS011;11154;48.558;9.234;2023-10-13T07:46:55;12.80;;;4.53;;
21979;SDS011;11154;48.558;9.234;2023-10-13T07:48:59;8.90;;;5.88;;
21979;SDS011;11154;48.558;9.234;2023-10-13T07:51:10;11.25;;;7.10;;
21979;SDS011;11154;48.558;9.234;2023-10-13T07:53:16;10.32;;;4.78;;
21979;SDS011;11154;48.558;9.234;2023-10-13T07:55:20;9.63;;;4.97;;
21979;SDS011;11154;48.558;9.234;2023-10-13T07:57:23;9.88;;;4.43;;
21979;SDS011;11154;48.558;9.234;2023-10-13T07:59:29;6.00;;;4.03;;
21979;SDS011;11154;48.558;9.234;2023-10-13T08:01:30;8.27;;;4.28;;
21979;SDS011;11154;48.558;9.234;2023-10-13T08:03:32;7.65;;;4.30;;
21979;SDS011;11154;48.558;9.234;2023-10-13T08:05:45;8.50;;;4.45;;
21979;SDS011;11154;48.558;9.234;2023-10-13T08:07:57;12.63;;;3.85;;
21979;SDS011;11154;48.558;9.234;2023-10-13T08:10:00;8.68;;;3.38;;
21979;SDS011;11154;48.558;9.234;2023-10-13T08:12:02;7.50;;;3.63;;
21979;SDS011;11154;48.558;9.234;2023-10-13T08:14:07;12.93;;;3.53;;
21979;SDS011;11154;48.558;9.234;2023-10-13T08:16:11;6.97;;;3.47;;
21979;SDS011;11154;48.558;9.234;2023-10-13T08:18:20;12.40;;;3.60;;
21979;SDS011;11154;48.558;9.234;2023-10-13T08:20:30;15.75;;;3.95;;
21979;SDS011;11154;48.558;9.234;2023-10-13T08:22:38;7.63;;;3.67;;
21979;SDS011;11154;48.558;9.234;2023-10-13T08:24:47;12.77;;;3.70;;
21979;SDS011;11154;48.558;9.234;2023-10-13T08:26:55;8.10;;;3.42;;
21979;SDS011;11154;48.558;9.234;2023-10-13T08:29:16;8.30;;;3.63;;
21979;SDS011;11154;48.558;9.234;2023-10-13T08:31:35;7.70;;;2.92;;
21979;SDS011;11154;48.558;9.234;2023-10-13T08:33:41;7.10;;;3.40;;
21979;SDS011;11154;48.558;9.234;2023-10-13T08:35:46;4.25;;;3.00;;
21979;SDS011;11154;48.558;9.234;2023-10-13T08:38:18;10.57;;;3.80;;
21979;SDS011;11154;48.558;9.234;2023-10-13T08:40:21;13.38;;;3.28;;
21979;SDS011;11154;48.558;9.234;2023-10-13T08:42:41;5.40;;;3.10;;
21979;SDS011;11154;48.558;9.234;2023-10-13T08:45:10;9.65;;;3.17;;
21979;SDS011;11154;48.558;9.234;2023-10-13T08:47:42;8.25;;;3.28;;
21979;SDS011;11154;48.558;9.234;2023-10-13T08:49:53;7.18;;;3.10;;
21979;SDS011;11154;48.558;9.234;2023-10-13T08:52:10;10.52;;;3.38;;
21979;SDS011;11154;48.558;9.234;2023-10-13T08:54:35;8.90;;;3.40;;
21979;SDS011;11154;48.558;9.234;2023-10-13T08:56:39;8.27;;;3.40;;
21979;SDS011;11154;48.558;9.234;2023-10-13T08:58:48;12.23;;;3.80;;
21979;SDS011;11154;48.558;9.234;2023-10-13T09:01:07;10.52;;;3.35;;
21979;SDS011;11154;48.558;9.234;2023-10-13T09:03:11;5.95;;;2.80;;
21979;SDS011;11154;48.558;9.234;2023-10-13T09:05:38;10.88;;;3.33;;
21979;SDS011;11154;48.558;9.234;2023-10-13T09:07:44;8.63;;;3.67;;
21979;SDS011;11154;48.558;9.234;2023-10-13T09:09:47;7.30;;;3.80;;
21979;SDS011;11154;48.558;9.234;2023-10-13T09:12:12;7.47;;;3.22;;
21979;SDS011;11154;48.558;9.234;2023-10-13T09:14:14;9.63;;;3.30;;
21979;SDS011;11154;48.558;9.234;2023-10-13T09:16:34;9.57;;;4.03;;
21979;SDS011;11154;48.558;9.234;2023-10-13T09:19:01;9.85;;;3.22;;
21979;SDS011;11154;48.558;9.234;2023-10-13T09:21:05;7.97;;;3.10;;
21979;SDS011;11154;48.558;9.234;2023-10-13T09:23:28;12.05;;;3.53;;
21979;SDS011;11154;48.558;9.234;2023-10-13T09:25:45;10.95;;;3.53;;
21979;SDS011;11154;48.558;9.234;2023-10-13T09:27:53;10.30;;;3.28;;
21979;SDS011;11154;48.558;9.234;2023-10-13T09:29:59;11.38;;;3.67;;
21979;SDS011;11154;48.558;9.234;2023-10-13T09:32:09;10.15;;;3.42;;
21979;SDS011;11154;48.558;9.234;2023-10-13T09:34:18;15.13;;;3.70;;
21979;SDS011;11154;48.558;9.234;2023-10-13T09:36:20;10.52;;;3.85;;
21979;SDS011;11154;48.558;9.234;2023-10-13T09:38:22;9.90;;;3.70;;
21979;SDS011;11154;48.558;9.234;2023-10-13T09:40:23;7.32;;;3.53;;
21979;SDS011;11154;48.558;9.234;2023-10-13T09:42:34;8.00;;;3.38;;
21979;SDS011;11154;48.558;9.234;2023-10-13T09:44:35;9.05;;;3.38;;
21979;SDS011;11154;48.558;9.234;2023-10-13T09:46:37;8.57;;;3.33;;
21979;SDS011;11154;48.558;9.234;2023-10-13T09:48:43;12.32;;;3.42;;
21979;SDS011;11154;48.558;9.234;2023-10-13T09:50:47;7.43;;;2.88;;
21979;SDS011;11154;48.558;9.234;2023-10-13T09:52:49;9.35;;;3.40;;
21979;SDS011;11154;48.558;9.234;2023-10-13T09:57:19;9.02;;;3.30;;
21979;SDS011;11154;48.558;9.234;2023-10-13T09:59:24;9.80;;;3.20;;
21979;SDS011;11154;48.558;9.234;2023-10-13T10:01:36;10.65;;;3.80;;
21979;SDS011;11154;48.558;9.234;2023-10-13T10:03:51;7.80;;;2.88;;
21979;SDS011;11154;48.558;9.234;2023-10-13T10:05:58;14.90;;;3.40;;
21979;SDS011;11154;48.558;9.234;2023-10-13T10:08:13;7.32;;;2.92;;
21979;SDS011;11154;48.558;9.234;2023-10-13T10:10:39;8.40;;;2.70;;
21979;SDS011;11154;48.558;9.234;2023-10-13T10:12:49;9.43;;;3.30;;
21979;SDS011;11154;48.558;9.234;2023-10-13T10:15:01;7.53;;;3.28;;
21979;SDS011;11154;48.558;9.234;2023-10-13T10:17:10;12.13;;;3.13;;
21979;SDS011;11154;48.558;9.234;2023-10-13T10:19:13;8.88;;;3.38;;
21979;SDS011;11154;48.558;9.234;2023-10-13T10:21:14;16.58;;;3.22;;
21979;SDS011;11154;48.558;9.234;2023-10-13T10:23:22;15.43;;;2.95;;
21979;SDS011;11154;48.558;9.234;2023-10-13T10:25:30;9.35;;;2.90;;
21979;SDS011;11154;48.558;9.234;2023-10-13T10:27:35;8.70;;;2.90;;
21979;SDS011;11154;48.558;9.234;2023-10-13T10:29:35;17.17;;;3.63;;
21979;SDS011;11154;48.558;9.234;2023-10-13T10:31:37;11.02;;;2.88;;
21979;SDS011;11154;48.558;9.234;2023-10-13T10:33:44;9.80;;;2.78;;
21979;SDS011;11154;48.558;9.234;2023-10-13T10:36:00;8.13;;;2.90;;
21979;SDS011;11154;48.558;9.234;2023-10-13T10:38:09;9.80;;;2.80;;
21979;SDS011;11154;48.558;9.234;2023-10-13T10:40:24;10.98;;;2.58;;
21979;SDS011;11154;48.558;9.234;2023-10-13T10:42:50;7.43;;;2.30;;
21979;SDS011;11154;48.558;9.234;2023-10-13T10:44:52;6.57;;;2.63;;
21979;SDS011;11154;48.558;9.234;2023-10-13T10:47:07;6.65;;;2.63;;
21979;SDS011;11154;48.558;9.234;2023-10-13T10:49:10;10.00;;;2.70;;
21979;SDS011;11154;48.558;9.234;2023-10-13T10:51:14;10.73;;;2.67;;
21979;SDS011;11154;48.558;9.234;2023-10-13T10:53:21;14.57;;;3.00;;
21979;SDS011;11154;48.558;9.234;2023-10-13T10:55:33;7.30;;;2.28;;
21979;SDS011;11154;48.558;9.234;2023-10-13T10:57:36;6.22;;;2.22;;
21979;SDS011;11154;48.558;9.234;2023-10-13T10:59:38;7.95;;;2.40;;
21979;SDS011;11154;48.558;9.234;2023-10-13T11:01:42;8.95;;;2.85;;
21979;SDS011;11154;48.558;9.234;2023-10-13T11:03:57;9.95;;;2.55;;
21979;SDS011;11154;48.558;9.234;2023-10-13T11:06:11;7.28;;;2.13;;
21979;SDS011;11154;48.558;9.234;2023-10-13T11:08:20;8.50;;;2.70;;
21979;SDS011;11154;48.558;9.234;2023-10-13T11:10:31;6.72;;;2.65;;
21979;SDS011;11154;48.558;9.234;2023-10-13T11:12:38;6.75;;;2.25;;
21979;SDS011;11154;48.558;9.234;2023-10-13T11:14:43;8.90;;;2.20;;
21979;SDS011;11154;48.558;9.234;2023-10-13T11:16:49;6.50;;;2.45;;
21979;SDS011;11154;48.558;9.234;2023-10-13T11:18:59;5.95;;;2.03;;
21979;SDS011;11154;48.558;9.234;2023-10-13T11:21:01;10.50;;;2.53;;
21979;SDS011;11154;48.558;9.234;2023-10-13T11:23:11;6.70;;;2.40;;
21979;SDS011;11154;48.558;9.234;2023-10-13T11:25:20;7.40;;;2.28;;
21979;SDS011;11154;48.558;9.234;2023-10-13T11:27:34;9.48;;;2.45;;
21979;SDS011;11154;48.558;9.234;2023-10-13T11:29:55;6.80;;;2.50;;
21979;SDS011;11154;48.558;9.234;2023-10-13T11:32:05;11.18;;;2.17;;
21979;SDS011;11154;48.558;9.234;2023-10-13T11:34:09;5.50;;;2.20;;
21979;SDS011;11154;48.558;9.234;2023-10-13T11:36:12;7.55;;;2.13;;
21979;SDS011;11154;48.558;9.234;2023-10-13T11:38:21;8.20;;;2.65;;
21979;SDS011;11154;48.558;9.234;2023-10-13T11:40:25;7.25;;;2.20;;
21979;SDS011;11154;48.558;9.234;2023-10-13T11:42:41;8.13;;;2.85;;
21979;SDS011;11154;48.558;9.234;2023-10-13T11:44:47;6.10;;;2.28;;
21979;SDS011;11154;48.558;9.234;2023-10-13T11:47:01;7.85;;;2.40;;
21979;SDS011;11154;48.558;9.234;2023-10-13T11:49:30;7.93;;;2.50;;
21979;SDS011;11154;48.558;9.234;2023-10-13T11:51:37;7.68;;;2.65;;
21979;SDS011;11154;48.558;9.234;2023-10-13T11:53:40;8.88;;;2.20;;
21979;SDS011;11154;48.558;9.234;2023-10-13T11:55:40;10.85;;;2.10;;
21979;SDS011;11154;48.558;9.234;2023-10-13T11:57:42;4.93;;;2.42;;
21979;SDS011;11154;48.558;9.234;2023-10-13T11:59:43;7.97;;;2.30;;
21979;SDS011;11154;48.558;9.234;2023-10-13T12:01:56;7.13;;;2.90;;
21979;SDS011;11154;48.558;9.234;2023-10-13T12:04:15;4.75;;;2.33;;
21979;SDS011;11154;48.558;9.234;2023-10-13T12:06:40;8.05;;;2.10;;
21979;SDS011;11154;48.558;9.234;2023-10-13T12:09:05;8.02;;;2.40;;
21979;SDS011;11154;48.558;9.234;2023-10-13T12:11:14;7.50;;;2.42;;
21979;SDS011;11154;48.558;9.234;2023-10-13T12:13:29;8.82;;;2.50;;
21979;SDS011;11154;48.558;9.234;2023-10-13T12:15:32;6.25;;;2.60;;
21979;SDS011;11154;48.558;9.234;2023-10-13T12:17:48;9.70;;;2.50;;
21979;SDS011;11154;48.558;9.234;2023-10-13T12:19:49;8.20;;;2.33;;
21979;SDS011;11154;48.558;9.234;2023-10-13T12:21:51;4.90;;;2.55;;
21979;SDS011;11154;48.558;9.234;2023-10-13T12:23:55;6.20;;;2.10;;
21979;SDS011;11154;48.558;9.234;2023-10-13T12:25:58;5.15;;;2.45;;
21979;SDS011;11154;48.558;9.234;2023-10-13T12:28:00;8.10;;;2.38;;
21979;SDS011;11154;48.558;9.234;2023-10-13T12:30:13;8.65;;;2.67;;
21979;SDS011;11154;48.558;9.234;2023-10-13T12:32:17;6.93;;;2.60;;
21979;SDS011;11154;48.558;9.234;2023-10-13T12:34:22;6.20;;;2.60;;
21979;SDS011;11154;48.558;9.234;2023-10-13T12:36:44;7.28;;;2.35;;
21979;SDS011;11154;48.558;9.234;2023-10-13T12:38:53;7.28;;;2.63;;
21979;SDS011;11154;48.558;9.234;2023-10-13T12:41:14;9.07;;;2.15;;
21979;SDS011;11154;48.558;9.234;2023-10-13T12:43:33;11.32;;;2.40;;
21979;SDS011;11154;48.558;9.234;2023-10-13T12:46:07;7.43;;;2.30;;
21979;SDS011;11154;48.558;9.234;2023-10-13T12:48:26;6.87;;;2.60;;
21979;SDS011;11154;48.558;9.234;2023-10-13T12:50:45;11.70;;;3.28;;
21979;SDS011;11154;48.558;9.234;2023-10-13T12:53:07;6.82;;;2.53;;
21979;SDS011;11154;48.558;9.234;2023-10-13T12:55:14;10.50;;;2.70;;
21979;SDS011;11154;48.558;9.234;2023-10-13T12:57:20;8.48;;;2.63;;
21979;SDS011;11154;48.558;9.234;2023-10-13T12:59:23;6.30;;;2.38;;
21979;SDS011;11154;48.558;9.234;2023-10-13T13:01:26;5.80;;;2.53;;